sensor_id;sensor_type;location;lat;lon;timestamp;temperature;humidity
9215;DHT22;4642;51.364;6.788;2023-09-19T00:01:08;15.90;99.90
9215;DHT22;4642;51.364;6.788;2023-09-19T00:03:34;15.90;99.90
9215;DHT22;4642;51.364;6.788;2023-09-19T00:06:03;15.80;99.90
9215;DHT22;4642;51.364;6.788;2023-09-19T00:08:29;15.80;99.90
9215;DHT22;4642;51.364;6.788;2023-09-19T00:10:54;15.70;99.90
9215;DHT22;4642;51.364;6.788;2023-09-19T00:13:20;15.70;99.90
9215;DHT22;4642;51.364;6.788;2023-09-19T00:15:47;15.60;99.90
9215;DHT22;4642;51.364;6.788;2023-09-19T00:18:17;15.70;99.90
9215;DHT22;4642;51.364;6.788;2023-09-19T00:20:44;15.60;99.90
9215;DHT22;4642;51.364;6.788;2023-09-19T00:23:13;15.60;99.90
9215;DHT22;4642;51.364;6.788;2023-09-19T00:25:39;15.60;99.90
9215;DHT22;4642;51.364;6.788;2023-09-19T00:28:06;15.50;99.90
9215;DHT22;4642;51.364;6.788;2023-09-19T00:30:33;15.60;99.90
9215;DHT22;4642;51.364;6.788;2023-09-19T00:32:59;15.50;99.90
9215;DHT22;4642;51.364;6.788;2023-09-19T00:35:26;15.40;99.90
9215;DHT22;4642;51.364;6.788;2023-09-19T00:37:53;15.40;99.90
9215;DHT22;4642;51.364;6.788;2023-09-19T00:40:19;15.50;99.90
9215;DHT22;4642;51.364;6.788;2023-09-19T00:42:45;15.50;99.90
9215;DHT22;4642;51.364;6.788;2023-09-19T00:45:13;15.40;99.90
9215;DHT22;4642;51.364;6.788;2023-09-19T00:47:44;15.40;99.90
9215;DHT22;4642;51.364;6.788;2023-09-19T00:50:11;15.40;99.90
9215;DHT22;4642;51.364;6.788;2023-09-19T00:52:40;15.40;99.90
9215;DHT22;4642;51.364;6.788;2023-09-19T00:55:08;15.40;99.90
9215;DHT22;4642;51.364;6.788;2023-09-19T00:57:35;15.30;99.90
9215;DHT22;4642;51.364;6.788;2023-09-19T01:00:03;15.30;99.90
9215;DHT22;4642;51.364;6.788;2023-09-19T01:02:34;15.30;99.90
9215;DHT22;4642;51.364;6.788;2023-09-19T01:05:01;15.10;99.90
9215;DHT22;4642;51.364;6.788;2023-09-19T01:07:27;15.30;99.90
9215;DHT22;4642;51.364;6.788;2023-09-19T01:09:56;15.30;99.90
9215;DHT22;4642;51.364;6.788;2023-09-19T01:12:47;15.20;99.90
9215;DHT22;4642;51.364;6.788;2023-09-19T01:18:00;15.30;99.90
9215;DHT22;4642;51.364;6.788;2023-09-19T01:20:45;15.20;99.90
9215;DHT22;4642;51.364;6.788;2023-09-19T01:26:24;15.30;99.90
9215;DHT22;4642;51.364;6.788;2023-09-19T01:29:17;15.20;99.90
9215;DHT22;4642;51.364;6.788;2023-09-19T01:31:57;15.20;99.90
9215;DHT22;4642;51.364;6.788;2023-09-19T01:34:23;15.30;99.90
9215;DHT22;4642;51.364;6.788;2023-09-19T01:36:48;15.20;99.90
9215;DHT22;4642;51.364;6.788;2023-09-19T01:39:14;15.10;99.90
9215;DHT22;4642;51.364;6.788;2023-09-19T01:41:51;15.10;99.90
9215;DHT22;4642;51.364;6.788;2023-09-19T01:44:35;15.10;99.90
9215;DHT22;4642;51.364;6.788;2023-09-19T01:47:07;15.10;99.90
9215;DHT22;4642;51.364;6.788;2023-09-19T01:49:50;15.10;99.90
9215;DHT22;4642;51.364;6.788;2023-09-19T01:52:20;15.10;99.90
9215;DHT22;4642;51.364;6.788;2023-09-19T01:54:51;15.10;99.90
9215;DHT22;4642;51.364;6.788;2023-09-19T01:57:28;15.10;99.90
9215;DHT22;4642;51.364;6.788;2023-09-19T02:00:05;15.20;99.90
9215;DHT22;4642;51.364;6.788;2023-09-19T02:02:40;15.00;99.90
9215;DHT22;4642;51.364;6.788;2023-09-19T02:05:07;15.10;99.90
9215;DHT22;4642;51.364;6.788;2023-09-19T02:07:33;15.10;99.90
9215;DHT22;4642;51.364;6.788;2023-09-19T02:10:01;15.20;99.90
9215;DHT22;4642;51.364;6.788;2023-09-19T02:12:27;15.30;99.90
9215;DHT22;4642;51.364;6.788;2023-09-19T02:14:52;15.10;99.90
9215;DHT22;4642;51.364;6.788;2023-09-19T02:17:18;15.20;99.90
9215;DHT22;4642;51.364;6.788;2023-09-19T02:19:44;14.90;99.90
9215;DHT22;4642;51.364;6.788;2023-09-19T02:22:10;15.00;99.90
9215;DHT22;4642;51.364;6.788;2023-09-19T02:24:36;15.00;99.90
9215;DHT22;4642;51.364;6.788;2023-09-19T02:27:03;15.10;99.90
9215;DHT22;4642;51.364;6.788;2023-09-19T02:29:30;15.10;99.90
9215;DHT22;4642;51.364;6.788;2023-09-19T02:31:55;15.10;99.90
9215;DHT22;4642;51.364;6.788;2023-09-19T02:34:22;15.00;99.90
9215;DHT22;4642;51.364;6.788;2023-09-19T02:36:48;15.00;99.90
9215;DHT22;4642;51.364;6.788;2023-09-19T02:39:13;15.00;99.90
9215;DHT22;4642;51.364;6.788;2023-09-19T02:41:39;15.10;99.90
9215;DHT22;4642;51.364;6.788;2023-09-19T02:44:05;15.00;99.90
9215;DHT22;4642;51.364;6.788;2023-09-19T02:46:33;15.00;99.90
9215;DHT22;4642;51.364;6.788;2023-09-19T02:48:59;15.00;99.90
9215;DHT22;4642;51.364;6.788;2023-09-19T02:51:24;15.00;99.90
9215;DHT22;4642;51.364;6.788;2023-09-19T02:53:50;15.10;99.90
9215;DHT22;4642;51.364;6.788;2023-09-19T02:56:18;15.10;99.90
9215;DHT22;4642;51.364;6.788;2023-09-19T02:58:44;14.90;99.90
9215;DHT22;4642;51.364;6.788;2023-09-19T03:01:12;14.90;99.90
9215;DHT22;4642;51.364;6.788;2023-09-19T03:03:38;14.90;99.90
9215;DHT22;4642;51.364;6.788;2023-09-19T03:06:06;14.90;99.90
9215;DHT22;4642;51.364;6.788;2023-09-19T03:08:34;15.00;99.90
9215;DHT22;4642;51.364;6.788;2023-09-19T03:11:03;15.00;99.90
9215;DHT22;4642;51.364;6.788;2023-09-19T03:13:31;14.90;99.90
9215;DHT22;4642;51.364;6.788;2023-09-19T03:15:57;14.90;99.90
9215;DHT22;4642;51.364;6.788;2023-09-19T03:18:24;14.90;99.90
9215;DHT22;4642;51.364;6.788;2023-09-19T03:20:54;14.80;99.90
9215;DHT22;4642;51.364;6.788;2023-09-19T03:23:20;14.80;99.90
9215;DHT22;4642;51.364;6.788;2023-09-19T03:25:46;14.80;99.90
9215;DHT22;4642;51.364;6.788;2023-09-19T03:28:13;14.80;99.90
9215;DHT22;4642;51.364;6.788;2023-09-19T03:30:38;14.80;99.90
9215;DHT22;4642;51.364;6.788;2023-09-19T03:33:04;14.80;99.90
9215;DHT22;4642;51.364;6.788;2023-09-19T03:35:30;14.80;99.90
9215;DHT22;4642;51.364;6.788;2023-09-19T03:37:56;14.80;99.90
9215;DHT22;4642;51.364;6.788;2023-09-19T03:40:22;14.60;99.90
9215;DHT22;4642;51.364;6.788;2023-09-19T03:42:49;14.70;99.90
9215;DHT22;4642;51.364;6.788;2023-09-19T03:45:14;14.70;99.90
9215;DHT22;4642;51.364;6.788;2023-09-19T03:47:41;14.70;99.90
9215;DHT22;4642;51.364;6.788;2023-09-19T03:50:07;14.60;99.90
9215;DHT22;4642;51.364;6.788;2023-09-19T03:52:36;14.60;99.90
9215;DHT22;4642;51.364;6.788;2023-09-19T03:55:01;14.60;99.90
9215;DHT22;4642;51.364;6.788;2023-09-19T03:57:30;14.60;99.90
9215;DHT22;4642;51.364;6.788;2023-09-19T03:59:56;14.60;99.90
9215;DHT22;4642;51.364;6.788;2023-09-19T04:02:22;14.60;99.90
9215;DHT22;4642;51.364;6.788;2023-09-19T04:04:48;14.60;99.90
9215;DHT22;4642;51.364;6.788;2023-09-19T04:07:14;14.50;99.90
9215;DHT22;4642;51.364;6.788;2023-09-19T04:09:40;14.50;99.90
9215;DHT22;4642;51.364;6.788;2023-09-19T04:12:06;14.50;99.90
9215;DHT22;4642;51.364;6.788;2023-09-19T04:14:34;14.50;99.90
9215;DHT22;4642;51.364;6.788;2023-09-19T04:16:59;14.50;99.90
9215;DHT22;4642;51.364;6.788;2023-09-19T04:19:26;14.50;99.90
9215;DHT22;4642;51.364;6.788;2023-09-19T04:21:51;14.40;99.90
9215;DHT22;4642;51.364;6.788;2023-09-19T04:24:17;14.40;99.90
9215;DHT22;4642;51.364;6.788;2023-09-19T04:26:45;14.40;99.90
9215;DHT22;4642;51.364;6.788;2023-09-19T04:29:10;14.40;99.90
9215;DHT22;4642;51.364;6.788;2023-09-19T04:31:38;14.40;99.90
9215;DHT22;4642;51.364;6.788;2023-09-19T04:34:06;14.40;99.90
9215;DHT22;4642;51.364;6.788;2023-09-19T04:36:33;14.40;99.90
9215;DHT22;4642;51.364;6.788;2023-09-19T04:38:58;14.40;99.90
9215;DHT22;4642;51.364;6.788;2023-09-19T04:41:24;14.50;99.90
9215;DHT22;4642;51.364;6.788;2023-09-19T04:43:50;14.40;99.90
9215;DHT22;4642;51.364;6.788;2023-09-19T04:46:16;14.40;99.90
9215;DHT22;4642;51.364;6.788;2023-09-19T04:48:43;14.50;99.90
9215;DHT22;4642;51.364;6.788;2023-09-19T04:51:09;14.40;99.90
9215;DHT22;4642;51.364;6.788;2023-09-19T04:53:36;14.60;99.90
9215;DHT22;4642;51.364;6.788;2023-09-19T04:56:01;14.50;99.90
9215;DHT22;4642;51.364;6.788;2023-09-19T04:58:29;14.40;99.90
9215;DHT22;4642;51.364;6.788;2023-09-19T05:00:54;14.40;99.90
9215;DHT22;4642;51.364;6.788;2023-09-19T05:03:20;14.40;99.90
9215;DHT22;4642;51.364;6.788;2023-09-19T05:05:46;14.40;99.90
9215;DHT22;4642;51.364;6.788;2023-09-19T05:08:11;14.50;99.90
9215;DHT22;4642;51.364;6.788;2023-09-19T05:10:40;14.40;99.90
9215;DHT22;4642;51.364;6.788;2023-09-19T05:13:06;14.40;99.90
9215;DHT22;4642;51.364;6.788;2023-09-19T05:15:33;14.40;99.90
9215;DHT22;4642;51.364;6.788;2023-09-19T05:17:59;14.40;99.90
9215;DHT22;4642;51.364;6.788;2023-09-19T05:20:25;14.40;99.90
9215;DHT22;4642;51.364;6.788;2023-09-19T05:23:07;14.40;99.90
9215;DHT22;4642;51.364;6.788;2023-09-19T05:25:39;14.40;99.90
9215;DHT22;4642;51.364;6.788;2023-09-19T05:28:06;14.40;99.90
9215;DHT22;4642;51.364;6.788;2023-09-19T05:30:33;14.40;99.90
9215;DHT22;4642;51.364;6.788;2023-09-19T05:32:58;14.40;99.90
9215;DHT22;4642;51.364;6.788;2023-09-19T05:35:24;14.40;99.90
9215;DHT22;4642;51.364;6.788;2023-09-19T05:37:51;14.40;99.90
9215;DHT22;4642;51.364;6.788;2023-09-19T05:40:19;14.40;99.90
9215;DHT22;4642;51.364;6.788;2023-09-19T05:42:46;14.50;99.90
9215;DHT22;4642;51.364;6.788;2023-09-19T05:45:12;14.50;99.90
9215;DHT22;4642;51.364;6.788;2023-09-19T05:47:41;14.50;99.90
9215;DHT22;4642;51.364;6.788;2023-09-19T05:50:09;14.50;99.90
9215;DHT22;4642;51.364;6.788;2023-09-19T05:52:35;14.60;99.90
9215;DHT22;4642;51.364;6.788;2023-09-19T05:55:04;14.60;99.90
9215;DHT22;4642;51.364;6.788;2023-09-19T05:57:30;14.60;99.90
9215;DHT22;4642;51.364;6.788;2023-09-19T05:59:56;14.60;99.90
9215;DHT22;4642;51.364;6.788;2023-09-19T06:02:21;14.70;99.90
9215;DHT22;4642;51.364;6.788;2023-09-19T06:04:47;14.70;99.90
9215;DHT22;4642;51.364;6.788;2023-09-19T06:07:12;14.70;99.90
9215;DHT22;4642;51.364;6.788;2023-09-19T06:09:38;14.70;99.90
9215;DHT22;4642;51.364;6.788;2023-09-19T06:12:04;14.80;99.90
9215;DHT22;4642;51.364;6.788;2023-09-19T06:14:30;14.80;99.90
9215;DHT22;4642;51.364;6.788;2023-09-19T06:16:56;14.80;99.90
9215;DHT22;4642;51.364;6.788;2023-09-19T06:19:21;14.80;99.90
9215;DHT22;4642;51.364;6.788;2023-09-19T06:21:48;14.90;99.90
9215;DHT22;4642;51.364;6.788;2023-09-19T06:24:14;14.90;99.90
9215;DHT22;4642;51.364;6.788;2023-09-19T06:26:40;14.90;99.90
9215;DHT22;4642;51.364;6.788;2023-09-19T06:29:06;14.90;99.90
9215;DHT22;4642;51.364;6.788;2023-09-19T06:31:34;14.80;99.90
9215;DHT22;4642;51.364;6.788;2023-09-19T06:33:59;14.90;99.90
9215;DHT22;4642;51.364;6.788;2023-09-19T06:36:25;14.90;99.90
9215;DHT22;4642;51.364;6.788;2023-09-19T06:38:50;15.00;99.90
9215;DHT22;4642;51.364;6.788;2023-09-19T06:41:19;15.10;99.90
9215;DHT22;4642;51.364;6.788;2023-09-19T06:43:45;15.00;99.90
9215;DHT22;4642;51.364;6.788;2023-09-19T06:46:11;15.00;99.90
9215;DHT22;4642;51.364;6.788;2023-09-19T06:48:38;15.00;99.90
9215;DHT22;4642;51.364;6.788;2023-09-19T06:51:03;15.00;99.90
9215;DHT22;4642;51.364;6.788;2023-09-19T06:53:34;15.00;99.90
9215;DHT22;4642;51.364;6.788;2023-09-19T06:56:01;15.00;99.90
9215;DHT22;4642;51.364;6.788;2023-09-19T06:58:26;15.10;99.90
9215;DHT22;4642;51.364;6.788;2023-09-19T07:00:52;15.10;99.90
9215;DHT22;4642;51.364;6.788;2023-09-19T07:03:18;15.10;99.90
9215;DHT22;4642;51.364;6.788;2023-09-19T07:05:47;15.10;99.90
9215;DHT22;4642;51.364;6.788;2023-09-19T07:08:13;15.10;99.90
9215;DHT22;4642;51.364;6.788;2023-09-19T07:10:40;15.20;99.90
9215;DHT22;4642;51.364;6.788;2023-09-19T07:13:07;15.20;99.90
9215;DHT22;4642;51.364;6.788;2023-09-19T07:15:36;15.20;99.90
9215;DHT22;4642;51.364;6.788;2023-09-19T07:18:06;15.30;99.90
9215;DHT22;4642;51.364;6.788;2023-09-19T07:20:32;15.30;99.90
9215;DHT22;4642;51.364;6.788;2023-09-19T07:23:01;15.30;99.90
9215;DHT22;4642;51.364;6.788;2023-09-19T07:25:30;15.30;99.90
9215;DHT22;4642;51.364;6.788;2023-09-19T07:27:56;15.30;99.90
9215;DHT22;4642;51.364;6.788;2023-09-19T07:30:25;15.40;99.90
9215;DHT22;4642;51.364;6.788;2023-09-19T07:32:51;15.40;99.90
9215;DHT22;4642;51.364;6.788;2023-09-19T07:35:18;15.50;99.90
9215;DHT22;4642;51.364;6.788;2023-09-19T07:37:45;15.60;99.90
9215;DHT22;4642;51.364;6.788;2023-09-19T07:40:15;15.50;99.90
9215;DHT22;4642;51.364;6.788;2023-09-19T07:42:40;15.50;99.90
9215;DHT22;4642;51.364;6.788;2023-09-19T07:45:09;15.60;99.90
9215;DHT22;4642;51.364;6.788;2023-09-19T07:47:49;15.60;99.90
9215;DHT22;4642;51.364;6.788;2023-09-19T07:50:16;15.60;99.90
9215;DHT22;4642;51.364;6.788;2023-09-19T07:52:44;15.70;99.90
9215;DHT22;4642;51.364;6.788;2023-09-19T07:55:10;15.70;99.90
9215;DHT22;4642;51.364;6.788;2023-09-19T07:57:43;15.70;99.90
9215;DHT22;4642;51.364;6.788;2023-09-19T08:00:09;15.70;99.90
9215;DHT22;4642;51.364;6.788;2023-09-19T08:02:36;15.80;99.90
9215;DHT22;4642;51.364;6.788;2023-09-19T08:08:40;15.80;99.90
9215;DHT22;4642;51.364;6.788;2023-09-19T08:11:06;15.80;99.90
9215;DHT22;4642;51.364;6.788;2023-09-19T08:13:46;15.80;99.90
9215;DHT22;4642;51.364;6.788;2023-09-19T08:16:14;15.90;99.90
9215;DHT22;4642;51.364;6.788;2023-09-19T08:18:40;15.90;99.90
9215;DHT22;4642;51.364;6.788;2023-09-19T08:21:07;16.00;99.90
9215;DHT22;4642;51.364;6.788;2023-09-19T08:23:37;16.00;99.90
9215;DHT22;4642;51.364;6.788;2023-09-19T08:26:03;16.10;99.90
9215;DHT22;4642;51.364;6.788;2023-09-19T08:28:33;16.10;99.90
9215;DHT22;4642;51.364;6.788;2023-09-19T08:31:06;16.10;99.90
9215;DHT22;4642;51.364;6.788;2023-09-19T08:33:36;16.20;99.90
9215;DHT22;4642;51.364;6.788;2023-09-19T08:36:03;16.10;99.90
9215;DHT22;4642;51.364;6.788;2023-09-19T08:38:34;16.30;99.90
9215;DHT22;4642;51.364;6.788;2023-09-19T08:41:01;16.30;99.90
9215;DHT22;4642;51.364;6.788;2023-09-19T08:43:30;16.50;99.90
9215;DHT22;4642;51.364;6.788;2023-09-19T08:49:28;16.50;99.90
9215;DHT22;4642;51.364;6.788;2023-09-19T08:52:10;16.40;99.90
9215;DHT22;4642;51.364;6.788;2023-09-19T08:54:41;16.50;99.90
9215;DHT22;4642;51.364;6.788;2023-09-19T08:57:09;16.70;99.90
9215;DHT22;4642;51.364;6.788;2023-09-19T08:59:41;16.70;99.90
9215;DHT22;4642;51.364;6.788;2023-09-19T09:02:14;16.60;99.90
9215;DHT22;4642;51.364;6.788;2023-09-19T09:04:41;16.80;99.90
9215;DHT22;4642;51.364;6.788;2023-09-19T09:07:13;16.80;99.90
9215;DHT22;4642;51.364;6.788;2023-09-19T09:09:40;16.90;99.90
9215;DHT22;4642;51.364;6.788;2023-09-19T09:12:11;16.90;99.90
9215;DHT22;4642;51.364;6.788;2023-09-19T09:14:47;17.00;99.90
9215;DHT22;4642;51.364;6.788;2023-09-19T09:17:14;17.00;99.90
9215;DHT22;4642;51.364;6.788;2023-09-19T09:19:40;17.10;99.90
9215;DHT22;4642;51.364;6.788;2023-09-19T09:22:11;17.20;99.90
9215;DHT22;4642;51.364;6.788;2023-09-19T09:24:37;17.20;99.90
9215;DHT22;4642;51.364;6.788;2023-09-19T09:27:05;17.10;99.90
9215;DHT22;4642;51.364;6.788;2023-09-19T09:29:49;17.30;82.90
9215;DHT22;4642;51.364;6.788;2023-09-19T09:32:28;17.30;17.20
9215;DHT22;4642;51.364;6.788;2023-09-19T09:35:06;17.40;99.90
9215;DHT22;4642;51.364;6.788;2023-09-19T09:37:35;17.40;1.00
9215;DHT22;4642;51.364;6.788;2023-09-19T09:40:04;17.40;99.90
9215;DHT22;4642;51.364;6.788;2023-09-19T09:42:41;17.40;99.90
9215;DHT22;4642;51.364;6.788;2023-09-19T09:45:22;17.50;99.90
9215;DHT22;4642;51.364;6.788;2023-09-19T09:48:00;17.50;99.90
9215;DHT22;4642;51.364;6.788;2023-09-19T09:50:36;17.30;99.90
9215;DHT22;4642;51.364;6.788;2023-09-19T09:53:27;17.30;99.90
9215;DHT22;4642;51.364;6.788;2023-09-19T09:56:00;17.40;1.00
9215;DHT22;4642;51.364;6.788;2023-09-19T09:58:26;17.50;99.90
9215;DHT22;4642;51.364;6.788;2023-09-19T10:00:56;17.30;1.00
9215;DHT22;4642;51.364;6.788;2023-09-19T10:03:31;17.40;99.90
9215;DHT22;4642;51.364;6.788;2023-09-19T10:05:57;17.60;1.00
9215;DHT22;4642;51.364;6.788;2023-09-19T10:08:23;17.70;99.90
9215;DHT22;4642;51.364;6.788;2023-09-19T10:10:51;17.60;1.00
9215;DHT22;4642;51.364;6.788;2023-09-19T10:13:19;17.70;99.90
9215;DHT22;4642;51.364;6.788;2023-09-19T10:15:51;18.00;99.90
9215;DHT22;4642;51.364;6.788;2023-09-19T10:18:20;17.90;1.00
9215;DHT22;4642;51.364;6.788;2023-09-19T10:20:47;17.90;99.90
9215;DHT22;4642;51.364;6.788;2023-09-19T10:23:15;17.90;99.90
9215;DHT22;4642;51.364;6.788;2023-09-19T10:25:48;17.90;36.10
9215;DHT22;4642;51.364;6.788;2023-09-19T10:28:15;18.00;1.00
9215;DHT22;4642;51.364;6.788;2023-09-19T10:30:46;17.90;99.90
9215;DHT22;4642;51.364;6.788;2023-09-19T10:33:14;18.00;1.00
9215;DHT22;4642;51.364;6.788;2023-09-19T10:35:42;18.10;1.00
9215;DHT22;4642;51.364;6.788;2023-09-19T10:38:13;18.00;44.70
9215;DHT22;4642;51.364;6.788;2023-09-19T10:40:40;18.10;1.00
9215;DHT22;4642;51.364;6.788;2023-09-19T10:43:16;18.20;1.00
9215;DHT22;4642;51.364;6.788;2023-09-19T10:45:45;18.20;99.90
9215;DHT22;4642;51.364;6.788;2023-09-19T10:48:18;18.40;99.90
9215;DHT22;4642;51.364;6.788;2023-09-19T10:50:57;18.30;99.90
9215;DHT22;4642;51.364;6.788;2023-09-19T10:53:26;18.40;1.00
9215;DHT22;4642;51.364;6.788;2023-09-19T10:55:59;18.40;1.00
9215;DHT22;4642;51.364;6.788;2023-09-19T10:58:32;18.40;1.00
9215;DHT22;4642;51.364;6.788;2023-09-19T11:01:00;18.40;1.00
9215;DHT22;4642;51.364;6.788;2023-09-19T11:03:33;18.40;54.80
9215;DHT22;4642;51.364;6.788;2023-09-19T11:08:26;18.50;1.00
9215;DHT22;4642;51.364;6.788;2023-09-19T11:10:52;18.60;1.00
9215;DHT22;4642;51.364;6.788;2023-09-19T11:13:29;18.60;1.00
9215;DHT22;4642;51.364;6.788;2023-09-19T11:26:47;18.60;1.00
9215;DHT22;4642;51.364;6.788;2023-09-19T11:29:30;18.70;1.00
9215;DHT22;4642;51.364;6.788;2023-09-19T11:31:59;18.90;1.00
9215;DHT22;4642;51.364;6.788;2023-09-19T11:34:44;18.70;1.00
9215;DHT22;4642;51.364;6.788;2023-09-19T11:40:05;18.80;74.70
9215;DHT22;4642;51.364;6.788;2023-09-19T11:42:45;18.80;99.90
9215;DHT22;4642;51.364;6.788;2023-09-19T11:48:24;19.10;1.00
9215;DHT22;4642;51.364;6.788;2023-09-19T11:50:53;19.10;99.90
9215;DHT22;4642;51.364;6.788;2023-09-19T11:53:19;19.10;99.90
9215;DHT22;4642;51.364;6.788;2023-09-19T11:59:21;19.30;99.90
9215;DHT22;4642;51.364;6.788;2023-09-19T12:01:55;19.30;1.00
9215;DHT22;4642;51.364;6.788;2023-09-19T12:04:34;19.40;1.00
9215;DHT22;4642;51.364;6.788;2023-09-19T12:07:10;19.30;1.00
9215;DHT22;4642;51.364;6.788;2023-09-19T12:09:38;19.40;99.90
9215;DHT22;4642;51.364;6.788;2023-09-19T12:12:04;19.50;99.90
9215;DHT22;4642;51.364;6.788;2023-09-19T12:14:30;19.60;1.00
9215;DHT22;4642;51.364;6.788;2023-09-19T12:16:57;19.60;99.90
9215;DHT22;4642;51.364;6.788;2023-09-19T12:19:25;19.70;1.00
9215;DHT22;4642;51.364;6.788;2023-09-19T12:22:01;19.70;99.90
9215;DHT22;4642;51.364;6.788;2023-09-19T12:24:29;19.80;1.00
9215;DHT22;4642;51.364;6.788;2023-09-19T12:27:00;19.70;1.00
9215;DHT22;4642;51.364;6.788;2023-09-19T12:29:27;19.70;79.30
9215;DHT22;4642;51.364;6.788;2023-09-19T12:31:54;19.80;1.00
9215;DHT22;4642;51.364;6.788;2023-09-19T12:34:24;19.90;99.90
9215;DHT22;4642;51.364;6.788;2023-09-19T12:37:07;19.90;1.00
9215;DHT22;4642;51.364;6.788;2023-09-19T12:39:47;19.90;1.00
9215;DHT22;4642;51.364;6.788;2023-09-19T12:42:21;19.90;99.90
9215;DHT22;4642;51.364;6.788;2023-09-19T12:44:51;19.80;1.00
9215;DHT22;4642;51.364;6.788;2023-09-19T12:47:25;19.80;99.90
9215;DHT22;4642;51.364;6.788;2023-09-19T12:50:13;19.80;1.00
9215;DHT22;4642;51.364;6.788;2023-09-19T12:52:43;19.90;1.00
9215;DHT22;4642;51.364;6.788;2023-09-19T12:55:29;19.90;99.90
9215;DHT22;4642;51.364;6.788;2023-09-19T12:58:13;20.10;1.00
9215;DHT22;4642;51.364;6.788;2023-09-19T13:00:44;20.10;1.00
9215;DHT22;4642;51.364;6.788;2023-09-19T13:05:55;20.10;1.00
9215;DHT22;4642;51.364;6.788;2023-09-19T13:08:24;20.20;1.00
9215;DHT22;4642;51.364;6.788;2023-09-19T13:11:04;20.00;1.00
9215;DHT22;4642;51.364;6.788;2023-09-19T13:13:44;20.00;1.00
9215;DHT22;4642;51.364;6.788;2023-09-19T13:16:11;20.00;99.90
9215;DHT22;4642;51.364;6.788;2023-09-19T13:18:54;20.00;1.00
9215;DHT22;4642;51.364;6.788;2023-09-19T13:21:34;20.10;1.00
9215;DHT22;4642;51.364;6.788;2023-09-19T13:24:26;19.90;1.00
9215;DHT22;4642;51.364;6.788;2023-09-19T13:26:54;19.80;99.90
9215;DHT22;4642;51.364;6.788;2023-09-19T13:29:19;19.80;99.90
9215;DHT22;4642;51.364;6.788;2023-09-19T13:31:49;19.90;1.00
9215;DHT22;4642;51.364;6.788;2023-09-19T13:34:15;20.10;1.00
9215;DHT22;4642;51.364;6.788;2023-09-19T13:36:42;19.90;1.00
9215;DHT22;4642;51.364;6.788;2023-09-19T13:39:08;19.80;61.60
9215;DHT22;4642;51.364;6.788;2023-09-19T13:41:38;19.70;1.00
9215;DHT22;4642;51.364;6.788;2023-09-19T13:44:04;19.70;1.00
9215;DHT22;4642;51.364;6.788;2023-09-19T13:46:30;19.70;99.90
9215;DHT22;4642;51.364;6.788;2023-09-19T13:49:00;19.60;99.90
9215;DHT22;4642;51.364;6.788;2023-09-19T13:51:29;19.50;1.00
9215;DHT22;4642;51.364;6.788;2023-09-19T13:53:55;19.50;99.90
9215;DHT22;4642;51.364;6.788;2023-09-19T13:56:21;19.50;99.90
9215;DHT22;4642;51.364;6.788;2023-09-19T13:58:47;19.50;98.30
9215;DHT22;4642;51.364;6.788;2023-09-19T14:01:12;19.50;99.90
9215;DHT22;4642;51.364;6.788;2023-09-19T14:03:41;19.40;1.00
9215;DHT22;4642;51.364;6.788;2023-09-19T14:06:12;19.40;99.90
9215;DHT22;4642;51.364;6.788;2023-09-19T14:08:38;19.40;99.90
9215;DHT22;4642;51.364;6.788;2023-09-19T14:11:07;19.60;1.00
9215;DHT22;4642;51.364;6.788;2023-09-19T14:13:33;19.50;99.90
9215;DHT22;4642;51.364;6.788;2023-09-19T14:16:06;19.50;1.00
9215;DHT22;4642;51.364;6.788;2023-09-19T14:18:34;19.50;1.00
9215;DHT22;4642;51.364;6.788;2023-09-19T14:21:03;19.50;62.40
9215;DHT22;4642;51.364;6.788;2023-09-19T14:23:29;19.40;99.90
9215;DHT22;4642;51.364;6.788;2023-09-19T14:25:54;19.40;1.00
9215;DHT22;4642;51.364;6.788;2023-09-19T14:28:20;19.30;1.00
9215;DHT22;4642;51.364;6.788;2023-09-19T14:30:45;19.50;1.00
9215;DHT22;4642;51.364;6.788;2023-09-19T14:33:11;19.50;99.90
9215;DHT22;4642;51.364;6.788;2023-09-19T14:35:37;19.40;3.00
9215;DHT22;4642;51.364;6.788;2023-09-19T14:38:03;19.40;1.00
9215;DHT22;4642;51.364;6.788;2023-09-19T14:40:29;19.30;99.90
9215;DHT22;4642;51.364;6.788;2023-09-19T14:42:55;19.40;99.90
9215;DHT22;4642;51.364;6.788;2023-09-19T14:45:20;19.40;1.00
9215;DHT22;4642;51.364;6.788;2023-09-19T14:47:46;19.40;99.90
9215;DHT22;4642;51.364;6.788;2023-09-19T14:50:12;19.40;1.00
9215;DHT22;4642;51.364;6.788;2023-09-19T14:52:38;19.50;99.90
9215;DHT22;4642;51.364;6.788;2023-09-19T14:55:06;19.30;99.90
9215;DHT22;4642;51.364;6.788;2023-09-19T14:57:32;19.30;99.90
9215;DHT22;4642;51.364;6.788;2023-09-19T14:59:58;19.40;1.00
9215;DHT22;4642;51.364;6.788;2023-09-19T15:02:24;19.30;1.00
9215;DHT22;4642;51.364;6.788;2023-09-19T15:04:50;19.30;1.00
9215;DHT22;4642;51.364;6.788;2023-09-19T15:07:16;19.30;1.00
9215;DHT22;4642;51.364;6.788;2023-09-19T15:09:42;19.40;99.90
9215;DHT22;4642;51.364;6.788;2023-09-19T15:12:09;19.30;99.90
9215;DHT22;4642;51.364;6.788;2023-09-19T15:14:40;19.30;1.00
9215;DHT22;4642;51.364;6.788;2023-09-19T15:17:07;19.30;1.00
9215;DHT22;4642;51.364;6.788;2023-09-19T15:19:32;19.30;99.90
9215;DHT22;4642;51.364;6.788;2023-09-19T15:21:58;19.30;99.90
9215;DHT22;4642;51.364;6.788;2023-09-19T15:24:23;19.30;1.00
9215;DHT22;4642;51.364;6.788;2023-09-19T15:26:52;19.30;1.00
9215;DHT22;4642;51.364;6.788;2023-09-19T15:29:17;19.30;99.90
9215;DHT22;4642;51.364;6.788;2023-09-19T15:31:43;19.30;6.60
9215;DHT22;4642;51.364;6.788;2023-09-19T15:34:09;19.30;1.00
9215;DHT22;4642;51.364;6.788;2023-09-19T15:36:34;19.50;1.00
9215;DHT22;4642;51.364;6.788;2023-09-19T15:41:27;19.20;1.00
9215;DHT22;4642;51.364;6.788;2023-09-19T15:43:53;19.40;2.40
9215;DHT22;4642;51.364;6.788;2023-09-19T15:46:20;19.40;1.00
9215;DHT22;4642;51.364;6.788;2023-09-19T15:48:46;19.40;1.00
9215;DHT22;4642;51.364;6.788;2023-09-19T15:51:12;19.50;99.90
9215;DHT22;4642;51.364;6.788;2023-09-19T15:53:46;19.70;99.90
9215;DHT22;4642;51.364;6.788;2023-09-19T15:56:13;19.80;99.90
9215;DHT22;4642;51.364;6.788;2023-09-19T15:58:46;19.80;99.90
9215;DHT22;4642;51.364;6.788;2023-09-19T16:01:12;19.70;99.90
9215;DHT22;4642;51.364;6.788;2023-09-19T16:03:39;19.60;1.00
9215;DHT22;4642;51.364;6.788;2023-09-19T16:06:09;19.50;1.00
9215;DHT22;4642;51.364;6.788;2023-09-19T16:08:37;19.40;1.00
9215;DHT22;4642;51.364;6.788;2023-09-19T16:11:03;19.40;99.90
9215;DHT22;4642;51.364;6.788;2023-09-19T16:13:29;19.30;99.90
9215;DHT22;4642;51.364;6.788;2023-09-19T16:15:54;19.20;1.00
9215;DHT22;4642;51.364;6.788;2023-09-19T16:18:20;19.20;1.00
9215;DHT22;4642;51.364;6.788;2023-09-19T16:20:45;19.20;99.90
9215;DHT22;4642;51.364;6.788;2023-09-19T16:23:12;19.20;1.00
9215;DHT22;4642;51.364;6.788;2023-09-19T16:25:37;19.20;1.00
9215;DHT22;4642;51.364;6.788;2023-09-19T16:28:03;19.10;99.90
9215;DHT22;4642;51.364;6.788;2023-09-19T16:30:31;19.10;1.00
9215;DHT22;4642;51.364;6.788;2023-09-19T16:32:57;19.10;99.90
9215;DHT22;4642;51.364;6.788;2023-09-19T16:35:23;19.20;99.90
9215;DHT22;4642;51.364;6.788;2023-09-19T16:37:48;19.20;1.00
9215;DHT22;4642;51.364;6.788;2023-09-19T16:40:14;19.30;99.90
9215;DHT22;4642;51.364;6.788;2023-09-19T16:42:40;19.20;26.10
9215;DHT22;4642;51.364;6.788;2023-09-19T16:45:07;19.20;99.90
9215;DHT22;4642;51.364;6.788;2023-09-19T16:47:33;19.20;99.90
9215;DHT22;4642;51.364;6.788;2023-09-19T16:49:58;19.20;1.00
9215;DHT22;4642;51.364;6.788;2023-09-19T16:52:24;19.20;1.00
9215;DHT22;4642;51.364;6.788;2023-09-19T16:54:49;19.20;99.90